Time;durP1;ratioP1;P1;durP2;ratioP2;P2;SDS_P1;SDS_P2;PMS_P1;PMS_P2;Temp;Humidity;BMP_temperature;BMP_pressure;BME280_temperature;BME280_humidity;BME280_pressure;Samples;Min_cycle;Max_cycle;Signal;HPM_P1;HPM_P2
2023/08/21 00:01:29;;;;;;;15.57;14.07;;;;;;;;;;5028905;28;20029;-73
2023/08/21 00:03:55;;;;;;;15.73;14.23;;;;;;;;;;5026970;28;20038;-74
2023/08/21 00:06:20;;;;;;;14.80;13.23;;;;;;;;;;5028025;28;20039;-73
2023/08/21 00:08:46;;;;;;;17.05;14.20;;;;;;;;;;5029853;28;20068;-73
2023/08/21 00:11:12;;;;;;;15.02;13.70;;;;;;;;;;5028569;28;20044;-73
2023/08/21 00:13:37;;;;;;;15.27;13.93;;;;;;;;;;5028759;28;20025;-73
2023/08/21 00:16:03;;;;;;;17.35;14.73;;;;;;;;;;5027668;28;20049;-74
2023/08/21 00:18:28;;;;;;;17.23;15.32;;;;;;;;;;5025672;28;20033;-74
2023/08/21 00:20:54;;;;;;;17.13;15.52;;;;;;;;;;5027396;28;20411;-73
2023/08/21 00:23:20;;;;;;;16.13;14.55;;;;;;;;;;5028892;28;20037;-74
2023/08/21 00:25:47;;;;;;;15.98;14.32;;;;;;;;;;5027332;28;20041;-75
2023/08/21 00:28:13;;;;;;;15.35;13.48;;;;;;;;;;5027105;28;20038;-74
2023/08/21 00:30:39;;;;;;;15.88;14.38;;;;;;;;;;5028478;28;20041;-75
2023/08/21 00:33:05;;;;;;;15.77;14.35;;;;;;;;;;5027140;28;20041;-75
2023/08/21 00:35:31;;;;;;;17.33;15.13;;;;;;;;;;5028117;28;20631;-75
2023/08/21 00:37:56;;;;;;;16.10;14.57;;;;;;;;;;5027600;28;20049;-75
2023/08/21 00:40:22;;;;;;;16.90;14.32;;;;;;;;;;5010819;28;20128;-75
2023/08/21 00:42:49;;;;;;;16.27;14.77;;;;;;;;;;5013317;28;20041;-75
2023/08/21 00:45:14;;;;;;;16.60;15.00;;;;;;;;;;5008211;28;20416;-75
2023/08/21 00:47:40;;;;;;;17.75;15.93;;;;;;;;;;5027076;28;20553;-75
2023/08/21 00:50:07;;;;;;;16.73;14.70;;;;;;;;;;5027177;28;20041;-75
2023/08/21 00:52:38;;;;;;;17.83;15.95;;;;;;;;;;5027610;28;20032;-74
2023/08/21 00:55:06;;;;;;;20.85;15.30;;;;;;;;;;5026985;28;20572;-75
2023/08/21 00:57:32;;;;;;;17.88;15.38;;;;;;;;;;5027348;28;20041;-75
2023/08/21 01:00:00;;;;;;;18.75;15.98;;;;;;;;;;5031282;28;20033;-75
2023/08/21 01:02:25;;;;;;;19.90;15.55;;;;;;;;;;5026600;28;20047;-75
2023/08/21 01:04:51;;;;;;;17.10;15.48;;;;;;;;;;5006859;28;20132;-75
2023/08/21 01:07:17;;;;;;;16.77;15.13;;;;;;;;;;5026727;28;20167;-75
2023/08/21 01:09:46;;;;;;;17.17;15.52;;;;;;;;;;5027613;28;20135;-75
2023/08/21 01:12:25;;;;;;;17.67;15.73;;;;;;;;;;5028315;28;20508;-74
2023/08/21 01:14:58;;;;;;;19.00;16.20;;;;;;;;;;5010269;28;20467;-75
2023/08/21 01:17:24;;;;;;;22.17;16.83;;;;;;;;;;5023269;28;20049;-74
2023/08/21 01:19:51;;;;;;;21.08;17.15;;;;;;;;;;5024383;28;20041;-75
2023/08/21 01:22:16;;;;;;;17.77;16.00;;;;;;;;;;5027204;28;20033;-74
2023/08/21 01:24:42;;;;;;;19.20;17.27;;;;;;;;;;5027599;28;20087;-75
2023/08/21 01:27:09;;;;;;;18.25;16.45;;;;;;;;;;4995225;28;20136;-74
2023/08/21 01:29:35;;;;;;;18.73;16.95;;;;;;;;;;5028283;28;20040;-75
2023/08/21 01:32:03;;;;;;;19.05;17.02;;;;;;;;;;5028852;28;20036;-74
2023/08/21 01:34:33;;;;;;;18.50;16.60;;;;;;;;;;5026383;28;20040;-75
2023/08/21 01:37:02;;;;;;;20.38;15.70;;;;;;;;;;5010036;28;20543;-74
2023/08/21 01:39:28;;;;;;;20.48;17.25;;;;;;;;;;5026633;28;20040;-74
2023/08/21 01:41:56;;;;;;;19.75;17.75;;;;;;;;;;5027390;28;20046;-74
2023/08/21 01:44:21;;;;;;;18.88;16.90;;;;;;;;;;4995589;28;20034;-75
2023/08/21 01:46:47;;;;;;;18.92;17.02;;;;;;;;;;5026791;28;20037;-75
2023/08/21 01:49:14;;;;;;;19.38;17.13;;;;;;;;;;5027610;28;20029;-75
2023/08/21 01:51:39;;;;;;;19.50;17.50;;;;;;;;;;5028716;28;20036;-75
2023/08/21 01:54:05;;;;;;;20.35;18.33;;;;;;;;;;5026805;28;20040;-75
2023/08/21 01:56:31;;;;;;;21.42;18.70;;;;;;;;;;4993407;28;20056;-74
2023/08/21 01:58:57;;;;;;;20.80;18.75;;;;;;;;;;5025972;28;20033;-75
2023/08/21 02:01:23;;;;;;;21.15;18.60;;;;;;;;;;5024074;28;20034;-74
2023/08/21 02:03:49;;;;;;;20.42;18.15;;;;;;;;;;5025308;28;20049;-75
2023/08/21 02:06:15;;;;;;;20.45;18.30;;;;;;;;;;4992246;28;20033;-75
2023/08/21 02:08:40;;;;;;;19.05;17.25;;;;;;;;;;5026436;28;20060;-75
2023/08/21 02:11:06;;;;;;;20.08;18.15;;;;;;;;;;5027641;28;20034;-75
2023/08/21 02:13:32;;;;;;;23.13;19.17;;;;;;;;;;5026364;28;20044;-74
2023/08/21 02:15:58;;;;;;;19.15;17.15;;;;;;;;;;5025286;28;20045;-75
2023/08/21 02:18:24;;;;;;;20.27;18.33;;;;;;;;;;5007987;28;20420;-75
2023/08/21 02:20:50;;;;;;;20.92;18.30;;;;;;;;;;5026757;28;20036;-75
2023/08/21 02:23:16;;;;;;;19.90;17.52;;;;;;;;;;5026658;28;20039;-75
2023/08/21 02:25:42;;;;;;;20.67;18.17;;;;;;;;;;5024537;28;20075;-75
2023/08/21 02:28:08;;;;;;;19.35;16.92;;;;;;;;;;5025132;28;20077;-74
2023/08/21 02:30:33;;;;;;;18.02;16.27;;;;;;;;;;5026920;28;20065;-74
2023/08/21 02:32:59;;;;;;;21.58;17.25;;;;;;;;;;5026880;28;20481;-74
2023/08/21 02:35:24;;;;;;;18.65;16.63;;;;;;;;;;5024174;28;20115;-75
2023/08/21 02:37:50;;;;;;;18.67;16.67;;;;;;;;;;5008672;28;20561;-74
2023/08/21 02:40:16;;;;;;;20.13;18.00;;;;;;;;;;5025292;28;20025;-75
2023/08/21 02:42:41;;;;;;;19.63;17.70;;;;;;;;;;5008641;28;20088;-75
2023/08/21 02:45:08;;;;;;;19.02;17.23;;;;;;;;;;5023569;28;20489;-75
2023/08/21 02:47:36;;;;;;;21.70;18.30;;;;;;;;;;5024585;28;20045;-75
2023/08/21 02:50:04;;;;;;;20.10;18.13;;;;;;;;;;4999487;28;20045;-75
2023/08/21 02:52:31;;;;;;;21.13;18.80;;;;;;;;;;5006839;28;20406;-75
2023/08/21 02:54:58;;;;;;;20.70;18.80;;;;;;;;;;5025213;28;20042;-74
2023/08/21 02:57:24;;;;;;;21.05;18.92;;;;;;;;;;5025188;28;20033;-75
2023/08/21 02:59:50;;;;;;;20.63;18.67;;;;;;;;;;5023809;28;20048;-75
2023/08/21 03:02:16;;;;;;;21.90;19.70;;;;;;;;;;5024461;28;20037;-75
2023/08/21 03:04:42;;;;;;;26.63;19.60;;;;;;;;;;5024576;28;20034;-75
2023/08/21 03:07:07;;;;;;;29.80;19.70;;;;;;;;;;5023793;28;20037;-74
2023/08/21 03:09:33;;;;;;;23.60;21.10;;;;;;;;;;5024644;28;20545;-75
2023/08/21 03:11:58;;;;;;;22.55;20.27;;;;;;;;;;5024322;28;20141;-75
2023/08/21 03:14:26;;;;;;;23.70;21.27;;;;;;;;;;5007575;28;20037;-74
2023/08/21 03:16:51;;;;;;;26.90;21.83;;;;;;;;;;5006333;28;20401;-74
2023/08/21 03:19:17;;;;;;;24.88;21.65;;;;;;;;;;5024289;28;20037;-75
2023/08/21 03:21:43;;;;;;;24.95;22.27;;;;;;;;;;5008062;28;20029;-75
2023/08/21 03:24:08;;;;;;;28.17;22.75;;;;;;;;;;5025232;28;20109;-74
2023/08/21 03:26:35;;;;;;;29.13;24.77;;;;;;;;;;5022731;28;20063;-75
2023/08/21 03:29:01;;;;;;;27.27;22.33;;;;;;;;;;5022950;28;20038;-75
2023/08/21 03:31:27;;;;;;;29.00;23.80;;;;;;;;;;5023903;28;20037;-75
2023/08/21 03:33:52;;;;;;;24.27;21.70;;;;;;;;;;5023707;28;20048;-74
2023/08/21 03:36:30;;;;;;;26.50;23.13;;;;;;;;;;5025338;28;20060;-75
2023/08/21 03:38:58;;;;;;;24.63;21.90;;;;;;;;;;5023789;28;20044;-75
2023/08/21 03:41:24;;;;;;;27.67;21.27;;;;;;;;;;4990525;28;20037;-75
2023/08/21 03:43:50;;;;;;;27.75;22.42;;;;;;;;;;5024126;28;20657;-75
2023/08/21 03:46:15;;;;;;;24.40;21.90;;;;;;;;;;5025811;28;20113;-75
2023/08/21 03:48:41;;;;;;;23.90;21.35;;;;;;;;;;5025869;28;20037;-75
2023/08/21 03:51:07;;;;;;;25.50;21.50;;;;;;;;;;5024038;28;20038;-75
2023/08/21 03:53:32;;;;;;;25.42;20.90;;;;;;;;;;5007843;28;20420;-74
2023/08/21 03:55:59;;;;;;;22.17;19.63;;;;;;;;;;5022341;28;20036;-75
2023/08/21 03:58:26;;;;;;;27.98;20.95;;;;;;;;;;5007436;28;20037;-74
2023/08/21 04:00:53;;;;;;;23.08;20.50;;;;;;;;;;5023975;28;20041;-74
2023/08/21 04:03:18;;;;;;;23.55;20.73;;;;;;;;;;5021398;28;20044;-74
2023/08/21 04:05:44;;;;;;;27.35;22.25;;;;;;;;;;5005474;28;20088;-75
2023/08/21 04:08:10;;;;;;;23.52;21.00;;;;;;;;;;5007406;28;20034;-74
2023/08/21 04:10:36;;;;;;;27.60;22.17;;;;;;;;;;5007674;28;20041;-75
2023/08/21 04:13:02;;;;;;;24.42;21.30;;;;;;;;;;5022575;28;20041;-75
2023/08/21 04:15:28;;;;;;;23.52;20.77;;;;;;;;;;5027333;28;20070;-75
2023/08/21 04:17:53;;;;;;;22.45;20.15;;;;;;;;;;5024423;28;20652;-75
2023/08/21 04:20:23;;;;;;;23.02;20.52;;;;;;;;;;5006622;28;20029;-74
2023/08/21 04:22:49;;;;;;;25.50;22.02;;;;;;;;;;5023997;28;20132;-75
2023/08/21 04:25:15;;;;;;;24.05;21.55;;;;;;;;;;5023850;28;20040;-75
2023/08/21 04:27:41;;;;;;;24.40;21.58;;;;;;;;;;5024205;28;20458;-75
2023/08/21 04:30:08;;;;;;;27.20;22.17;;;;;;;;;;5009261;28;20120;-75
2023/08/21 04:32:34;;;;;;;26.33;22.90;;;;;;;;;;5027520;28;20173;-75
2023/08/21 04:35:00;;;;;;;27.88;22.67;;;;;;;;;;5026791;28;20323;-75
2023/08/21 04:37:26;;;;;;;28.77;24.52;;;;;;;;;;5025031;28;20401;-75
2023/08/21 04:39:53;;;;;;;27.27;23.08;;;;;;;;;;5027286;28;20037;-75
2023/08/21 04:42:20;;;;;;;25.67;22.40;;;;;;;;;;5010715;28;20041;-75
2023/08/21 04:44:46;;;;;;;26.88;22.73;;;;;;;;;;5026899;28;20037;-75
2023/08/21 04:47:22;;;;;;;28.95;22.30;;;;;;;;;;5025994;28;20045;-74
2023/08/21 04:49:50;;;;;;;26.80;23.80;;;;;;;;;;5004304;28;20048;-74
2023/08/21 04:52:16;;;;;;;26.52;22.95;;;;;;;;;;5026471;28;20550;-73
2023/08/21 04:54:42;;;;;;;24.10;21.42;;;;;;;;;;5023996;28;20041;-73
2023/08/21 04:57:08;;;;;;;24.33;20.98;;;;;;;;;;5026443;28;20714;-75
2023/08/21 04:59:37;;;;;;;23.70;21.10;;;;;;;;;;4993084;28;20048;-76
2023/08/21 05:02:04;;;;;;;24.98;21.45;;;;;;;;;;5026349;28;20046;-76
2023/08/21 05:04:29;;;;;;;26.27;22.23;;;;;;;;;;5028791;28;20122;-76
2023/08/21 05:06:55;;;;;;;24.05;21.52;;;;;;;;;;5010712;28;20589;-75
2023/08/21 05:09:21;;;;;;;23.00;20.63;;;;;;;;;;5059737;28;20488;-76
2023/08/21 05:11:47;;;;;;;23.23;20.17;;;;;;;;;;5024278;28;20140;-76
2023/08/21 05:14:14;;;;;;;25.45;19.63;;;;;;;;;;5024283;28;20116;-76
2023/08/21 05:16:40;;;;;;;20.45;18.48;;;;;;;;;;5009999;28;20041;-76
2023/08/21 05:19:06;;;;;;;20.95;18.77;;;;;;;;;;5010144;28;20044;-76
2023/08/21 05:21:32;;;;;;;19.90;18.05;;;;;;;;;;5058999;28;20447;-77
2023/08/21 05:23:57;;;;;;;20.00;18.20;;;;;;;;;;5025255;28;20108;-76
2023/08/21 05:26:25;;;;;;;20.83;18.40;;;;;;;;;;5025981;28;20496;-75
2023/08/21 05:28:50;;;;;;;19.25;17.60;;;;;;;;;;5026304;28;20041;-73
2023/08/21 05:31:16;;;;;;;19.95;18.15;;;;;;;;;;5024422;28;20041;-74
2023/08/21 05:33:50;;;;;;;18.00;16.40;;;;;;;;;;5025798;28;20034;-74
2023/08/21 05:36:16;;;;;;;17.92;16.30;;;;;;;;;;5025921;28;20041;-74
2023/08/21 05:38:42;;;;;;;18.52;16.83;;;;;;;;;;5023778;28;20037;-74
2023/08/21 05:41:07;;;;;;;18.45;16.55;;;;;;;;;;5040686;28;20356;-74
2023/08/21 05:43:34;;;;;;;18.20;16.70;;;;;;;;;;5025083;28;20041;-74
2023/08/21 05:46:00;;;;;;;17.75;15.98;;;;;;;;;;5022178;28;20049;-74
2023/08/21 05:48:26;;;;;;;17.33;15.82;;;;;;;;;;5025823;28;20045;-74
2023/08/21 05:50:52;;;;;;;18.27;16.67;;;;;;;;;;5009833;28;20390;-74
2023/08/21 05:53:18;;;;;;;17.45;15.75;;;;;;;;;;5027363;28;20393;-74
2023/08/21 05:55:44;;;;;;;17.65;16.10;;;;;;;;;;5009872;28;20325;-74
2023/08/21 05:58:10;;;;;;;17.55;15.77;;;;;;;;;;5025536;28;20030;-74
2023/08/21 06:00:39;;;;;;;18.20;16.40;;;;;;;;;;5027267;28;20031;-74
2023/08/21 06:03:05;;;;;;;16.98;15.45;;;;;;;;;;5009898;28;20034;-74
2023/08/21 06:05:57;;;;;;;17.15;15.48;;;;;;;;;;5010618;28;20052;-74
2023/08/21 06:08:23;;;;;;;17.20;15.80;;;;;;;;;;5041422;28;20059;-74
2023/08/21 06:10:52;;;;;;;17.55;15.95;;;;;;;;;;5026863;28;20447;-74
2023/08/21 06:13:18;;;;;;;17.92;16.42;;;;;;;;;;5026336;28;20116;-74
2023/08/21 06:15:45;;;;;;;17.08;15.48;;;;;;;;;;5025338;28;20067;-74
2023/08/21 06:18:11;;;;;;;17.13;15.52;;;;;;;;;;5026289;28;20473;-74
2023/08/21 06:20:37;;;;;;;16.95;15.38;;;;;;;;;;5018321;28;20103;-74
2023/08/21 06:23:03;;;;;;;17.52;15.88;;;;;;;;;;5010691;28;20505;-73
2023/08/21 06:25:30;;;;;;;15.68;14.10;;;;;;;;;;5025455;28;20120;-74
2023/08/21 06:27:56;;;;;;;16.90;15.13;;;;;;;;;;5010153;28;20041;-73
2023/08/21 06:30:22;;;;;;;15.05;13.82;;;;;;;;;;5028361;28;20091;-73
2023/08/21 06:32:47;;;;;;;14.65;13.23;;;;;;;;;;5027922;28;20029;-74
2023/08/21 06:35:14;;;;;;;14.40;13.07;;;;;;;;;;5023665;28;20026;-74
2023/08/21 06:37:41;;;;;;;13.80;12.63;;;;;;;;;;5008163;28;20045;-74
2023/08/21 06:40:08;;;;;;;15.23;13.77;;;;;;;;;;5025802;28;20535;-74
2023/08/21 06:42:33;;;;;;;13.65;12.40;;;;;;;;;;5000922;28;20037;-74
2023/08/21 06:45:00;;;;;;;14.25;12.85;;;;;;;;;;5024534;28;20401;-74
2023/08/21 06:47:25;;;;;;;13.07;11.90;;;;;;;;;;5026163;28;20037;-74
2023/08/21 06:49:51;;;;;;;12.90;11.80;;;;;;;;;;5025945;28;20033;-74
2023/08/21 06:52:17;;;;;;;15.18;11.85;;;;;;;;;;5025209;28;20043;-74
2023/08/21 06:54:43;;;;;;;12.85;11.65;;;;;;;;;;5026388;28;20109;-74
2023/08/21 06:57:08;;;;;;;11.77;10.75;;;;;;;;;;5025516;28;20029;-74
2023/08/21 06:59:35;;;;;;;13.15;11.73;;;;;;;;;;5027447;28;20246;-74
2023/08/21 07:02:05;;;;;;;13.43;11.18;;;;;;;;;;5026369;28;20384;-74
2023/08/21 07:04:32;;;;;;;12.05;10.90;;;;;;;;;;5008568;28;20437;-74
2023/08/21 07:06:58;;;;;;;14.18;11.80;;;;;;;;;;5025312;28;20103;-74
2023/08/21 07:09:24;;;;;;;13.93;11.75;;;;;;;;;;5025307;28;20477;-74
2023/08/21 07:11:49;;;;;;;13.45;11.48;;;;;;;;;;5026596;28;20504;-74
2023/08/21 07:14:16;;;;;;;12.73;11.43;;;;;;;;;;5027103;28;20520;-74
2023/08/21 07:16:43;;;;;;;11.90;10.95;;;;;;;;;;5025471;28;20543;-75
2023/08/21 07:19:09;;;;;;;12.63;11.50;;;;;;;;;;5025490;28;20124;-75
2023/08/21 07:21:36;;;;;;;12.75;11.27;;;;;;;;;;5025902;28;20290;-74
2023/08/21 07:24:02;;;;;;;11.90;10.80;;;;;;;;;;5026294;28;20080;-75
2023/08/21 07:26:29;;;;;;;14.48;11.20;;;;;;;;;;5007890;28;20033;-74
2023/08/21 07:28:54;;;;;;;12.40;11.02;;;;;;;;;;5008740;28;20107;-74
2023/08/21 07:31:20;;;;;;;11.82;10.50;;;;;;;;;;5029565;28;20452;-74
2023/08/21 07:33:46;;;;;;;12.18;11.00;;;;;;;;;;5025593;28;20045;-73
2023/08/21 07:36:16;;;;;;;12.10;10.93;;;;;;;;;;5025179;28;20025;-74
2023/08/21 07:38:43;;;;;;;11.73;10.57;;;;;;;;;;5024011;28;20032;-74
2023/08/21 07:41:11;;;;;;;11.80;10.60;;;;;;;;;;5026129;28;20285;-74
2023/08/21 07:43:42;;;;;;;11.35;10.55;;;;;;;;;;5024315;28;20369;-73
2023/08/21 07:46:12;;;;;;;11.43;10.30;;;;;;;;;;5024266;28;20041;-74
2023/08/21 07:48:38;;;;;;;11.30;10.23;;;;;;;;;;5026247;28;20114;-74
2023/08/21 07:51:03;;;;;;;11.20;10.20;;;;;;;;;;5029341;28;20520;-74
2023/08/21 07:53:31;;;;;;;11.40;10.50;;;;;;;;;;5025941;28;20057;-74
2023/08/21 07:55:57;;;;;;;13.90;11.13;;;;;;;;;;5024143;28;20034;-73
2023/08/21 07:58:23;;;;;;;11.75;10.23;;;;;;;;;;5026513;28;20033;-74
2023/08/21 08:00:49;;;;;;;12.05;9.90;;;;;;;;;;5025773;28;20040;-74
2023/08/21 08:03:14;;;;;;;10.85;9.88;;;;;;;;;;5026079;28;20449;-74
2023/08/21 08:05:41;;;;;;;12.48;9.35;;;;;;;;;;5027543;28;20044;-74
2023/08/21 08:08:07;;;;;;;14.23;10.07;;;;;;;;;;5029930;28;20073;-74
2023/08/21 08:10:33;;;;;;;11.60;9.90;;;;;;;;;;5028797;28;20030;-74
2023/08/21 08:12:59;;;;;;;11.40;9.73;;;;;;;;;;5028057;28;20037;-74
2023/08/21 08:15:24;;;;;;;11.20;10.20;;;;;;;;;;5028935;28;20140;-73
2023/08/21 08:17:52;;;;;;;11.55;10.23;;;;;;;;;;5011594;28;20059;-75
2023/08/21 08:20:19;;;;;;;11.77;10.57;;;;;;;;;;5029557;28;20090;-73
2023/08/21 08:22:45;;;;;;;11.25;10.07;;;;;;;;;;5028256;28;20244;-73
2023/08/21 08:25:11;;;;;;;17.60;10.30;;;;;;;;;;5010389;28;20037;-74
2023/08/21 08:27:37;;;;;;;11.13;10.02;;;;;;;;;;5028597;28;20104;-74
2023/08/21 08:30:04;;;;;;;14.88;10.10;;;;;;;;;;5028341;28;20038;-74
2023/08/21 08:32:29;;;;;;;15.00;10.23;;;;;;;;;;5024696;28;20036;-73
2023/08/21 08:34:55;;;;;;;11.15;9.73;;;;;;;;;;5011736;28;20042;-74
2023/08/21 08:37:21;;;;;;;11.07;9.88;;;;;;;;;;5028651;28;20029;-74
2023/08/21 08:39:47;;;;;;;13.05;9.88;;;;;;;;;;5010584;28;20072;-74
2023/08/21 08:42:14;;;;;;;10.90;9.82;;;;;;;;;;5025754;28;20036;-74
2023/08/21 08:44:41;;;;;;;10.55;9.50;;;;;;;;;;5027381;28;20037;-74
2023/08/21 08:47:14;;;;;;;10.32;9.18;;;;;;;;;;5027526;28;20041;-74
2023/08/21 08:49:40;;;;;;;10.60;9.40;;;;;;;;;;5025870;28;20033;-74
2023/08/21 08:52:06;;;;;;;10.23;9.23;;;;;;;;;;5028682;28;20098;-74
2023/08/21 08:54:33;;;;;;;11.13;10.10;;;;;;;;;;5028389;28;20499;-74
2023/08/21 08:56:58;;;;;;;10.60;9.63;;;;;;;;;;5029233;28;20500;-74
2023/08/21 08:59:24;;;;;;;11.13;10.05;;;;;;;;;;5029155;28;20040;-74
2023/08/21 09:01:50;;;;;;;11.23;10.05;;;;;;;;;;5030449;28;20308;-74
2023/08/21 09:04:16;;;;;;;11.85;9.50;;;;;;;;;;5027320;28;20242;-74
2023/08/21 09:06:42;;;;;;;11.45;9.77;;;;;;;;;;5026381;28;20487;-74
2023/08/21 09:09:10;;;;;;;10.48;9.32;;;;;;;;;;5010564;28;20504;-74
2023/08/21 09:11:36;;;;;;;;;;;;;;;;;;5044188;28;20040;-75
2023/08/21 09:14:01;;;;;;;13.13;9.68;;;;;;;;;;5029663;28;19912;-74
2023/08/21 09:16:27;;;;;;;10.65;9.60;;;;;;;;;;5025171;28;20477;-74
2023/08/21 09:18:56;;;;;;;16.13;9.88;;;;;;;;;;5026845;28;20507;-74
2023/08/21 09:21:24;;;;;;;11.02;9.90;;;;;;;;;;5028500;28;20393;-75
2023/08/21 09:23:56;;;;;;;12.10;10.63;;;;;;;;;;5024336;28;20049;-73
2023/08/21 09:26:23;;;;;;;11.20;9.18;;;;;;;;;;5025888;28;20036;-75
2023/08/21 09:28:50;;;;;;;10.82;9.70;;;;;;;;;;5025264;28;20056;-74
2023/08/21 09:31:16;;;;;;;14.52;10.07;;;;;;;;;;5028033;28;20436;-74
2023/08/21 09:33:42;;;;;;;13.02;9.95;;;;;;;;;;5026354;28;20032;-74
2023/08/21 09:36:11;;;;;;;12.10;9.93;;;;;;;;;;5027064;28;20021;-74
2023/08/21 09:38:40;;;;;;;10.25;9.38;;;;;;;;;;5026578;28;20041;-74
2023/08/21 09:41:06;;;;;;;12.27;9.70;;;;;;;;;;5027122;28;20046;-73
2023/08/21 09:43:31;;;;;;;12.93;9.95;;;;;;;;;;5026166;28;20059;-74
2023/08/21 09:45:57;;;;;;;10.55;9.38;;;;;;;;;;5031297;28;20037;-75
2023/08/21 09:48:24;;;;;;;11.98;9.25;;;;;;;;;;5029442;28;20048;-74
2023/08/21 09:50:51;;;;;;;10.63;9.52;;;;;;;;;;5027058;28;20029;-74
2023/08/21 09:53:17;;;;;;;12.40;9.48;;;;;;;;;;5027743;28;20164;-74
2023/08/21 09:56:03;;;;;;;10.48;9.40;;;;;;;;;;5028794;28;20057;-74
2023/08/21 09:58:29;;;;;;;9.73;8.83;;;;;;;;;;4993894;28;20045;-74
2023/08/21 10:00:57;;;;;;;10.85;9.68;;;;;;;;;;5028284;28;20064;-74
2023/08/21 10:03:23;;;;;;;10.73;9.05;;;;;;;;;;5028263;28;20167;-74
2023/08/21 10:05:49;;;;;;;8.80;7.95;;;;;;;;;;5027479;28;20029;-74
2023/08/21 10:08:25;;;;;;;9.02;7.85;;;;;;;;;;5027568;28;20428;-74
2023/08/21 10:10:51;;;;;;;12.07;8.25;;;;;;;;;;5026834;28;20052;-74
2023/08/21 10:13:18;;;;;;;9.40;8.50;;;;;;;;;;5028354;28;20075;-74
2023/08/21 10:15:44;;;;;;;8.50;7.70;;;;;;;;;;5024644;28;20053;-74
2023/08/21 10:18:30;;;;;;;8.95;7.95;;;;;;;;;;5027723;28;20063;-74
2023/08/21 10:21:09;;;;;;;9.00;8.10;;;;;;;;;;5027829;28;20048;-75
2023/08/21 10:23:37;;;;;;;9.00;8.18;;;;;;;;;;5026500;28;20517;-74
2023/08/21 10:26:06;;;;;;;8.82;7.95;;;;;;;;;;5024622;28;20516;-74
2023/08/21 10:29:02;;;;;;;9.00;8.13;;;;;;;;;;5009425;28;20404;-74
2023/08/21 10:31:34;;;;;;;8.82;8.05;;;;;;;;;;4982532;28;20046;-74
2023/08/21 10:34:01;;;;;;;8.88;8.02;;;;;;;;;;4981290;28;20026;-74
2023/08/21 10:36:42;;;;;;;8.75;7.70;;;;;;;;;;4981893;28;20050;-73
2023/08/21 10:39:17;;;;;;;7.93;7.18;;;;;;;;;;4983456;28;20074;-74
2023/08/21 10:42:07;;;;;;;8.75;7.95;;;;;;;;;;4967546;28;20517;-74
2023/08/21 10:44:45;;;;;;;13.90;7.40;;;;;;;;;;4987709;28;20073;-73
2023/08/21 10:47:30;;;;;;;8.85;7.95;;;;;;;;;;4967637;28;20080;-74
2023/08/21 10:49:57;;;;;;;8.27;7.30;;;;;;;;;;4980262;28;20192;-75
2023/08/21 10:52:34;;;;;;;10.18;8.20;;;;;;;;;;4980846;28;20461;-74
2023/08/21 10:55:01;;;;;;;10.55;8.75;;;;;;;;;;4981342;28;20046;-75
2023/08/21 10:57:28;;;;;;;9.27;8.38;;;;;;;;;;4982820;28;20034;-74
2023/08/21 10:59:54;;;;;;;10.73;8.60;;;;;;;;;;4983270;28;20056;-75
2023/08/21 11:02:19;;;;;;;8.50;7.78;;;;;;;;;;4964688;28;20496;-74
2023/08/21 11:04:45;;;;;;;9.32;8.07;;;;;;;;;;4982290;28;20105;-75
2023/08/21 11:07:15;;;;;;;11.55;8.50;;;;;;;;;;4976126;28;20475;-74
2023/08/21 11:09:40;;;;;;;9.38;8.40;;;;;;;;;;5024384;28;20033;-74
2023/08/21 11:12:11;;;;;;;9.25;8.48;;;;;;;;;;5022266;28;20416;-74
2023/08/21 11:14:40;;;;;;;9.30;8.25;;;;;;;;;;5022243;28;20159;-74
2023/08/21 11:17:07;;;;;;;8.88;8.00;;;;;;;;;;5026926;28;20056;-74
2023/08/21 11:19:33;;;;;;;11.32;7.93;;;;;;;;;;5024763;28;20244;-75
2023/08/21 11:22:03;;;;;;;12.57;8.60;;;;;;;;;;5022163;28;20049;-74
2023/08/21 11:24:38;;;;;;;12.80;8.65;;;;;;;;;;5024358;28;20044;-75
2023/08/21 11:27:04;;;;;;;11.65;7.82;;;;;;;;;;5022317;28;20033;-74
2023/08/21 11:29:51;;;;;;;10.68;8.35;;;;;;;;;;5022936;28;20049;-74
2023/08/21 11:32:18;;;;;;;10.48;8.18;;;;;;;;;;5021865;28;20091;-74
2023/08/21 11:34:49;;;;;;;8.60;7.90;;;;;;;;;;5024320;28;20090;-74
2023/08/21 11:37:20;;;;;;;9.20;8.30;;;;;;;;;;5023141;28;20037;-74
2023/08/21 11:39:48;;;;;;;10.02;8.60;;;;;;;;;;5022744;28;20323;-74
2023/08/21 11:42:15;;;;;;;10.18;8.70;;;;;;;;;;5050812;28;20353;-74
2023/08/21 11:44:45;;;;;;;9.48;8.55;;;;;;;;;;5021783;28;20065;-74
2023/08/21 11:47:13;;;;;;;8.52;7.72;;;;;;;;;;5023568;28;20112;-75
2023/08/21 11:49:43;;;;;;;9.77;8.77;;;;;;;;;;5052767;28;20077;-74
2023/08/21 11:52:12;;;;;;;10.85;8.98;;;;;;;;;;5023992;28;20216;-74
2023/08/21 11:54:40;;;;;;;10.40;9.18;;;;;;;;;;5021227;28;20386;-74
2023/08/21 11:57:11;;;;;;;;;;;;;;;;;;5022140;28;20041;-74
2023/08/21 11:59:37;;;;;;;10.23;9.27;;;;;;;;;;5022410;28;19928;-74
2023/08/21 12:02:10;;;;;;;9.75;8.90;;;;;;;;;;5021715;28;20042;-73
2023/08/21 12:04:35;;;;;;;10.30;9.48;;;;;;;;;;5023499;28;20131;-74
2023/08/21 12:07:01;;;;;;;10.85;9.82;;;;;;;;;;5005037;28;20108;-75
2023/08/21 12:09:27;;;;;;;11.60;9.27;;;;;;;;;;5023588;28;20382;-74
2023/08/21 12:11:52;;;;;;;11.57;9.68;;;;;;;;;;5023736;28;20090;-74
2023/08/21 12:14:18;;;;;;;10.10;9.20;;;;;;;;;;5023110;28;20124;-75
2023/08/21 12:16:44;;;;;;;11.13;9.25;;;;;;;;;;5021096;28;20037;-75
2023/08/21 12:19:11;;;;;;;10.52;9.65;;;;;;;;;;5022542;28;20037;-74
2023/08/21 12:21:37;;;;;;;10.50;9.60;;;;;;;;;;5021949;28;20420;-74
2023/08/21 12:24:05;;;;;;;10.52;9.40;;;;;;;;;;5023423;28;20037;-74
2023/08/21 12:26:30;;;;;;;10.70;9.80;;;;;;;;;;5020716;28;20477;-75
2023/08/21 12:28:56;;;;;;;11.35;9.77;;;;;;;;;;5023673;28;20038;-74
2023/08/21 12:31:22;;;;;;;10.63;9.57;;;;;;;;;;5023098;28;20515;-74
2023/08/21 12:33:47;;;;;;;11.38;9.95;;;;;;;;;;5020631;28;20315;-74
2023/08/21 12:36:13;;;;;;;11.50;10.40;;;;;;;;;;5023415;28;20488;-74
2023/08/21 12:38:38;;;;;;;11.05;9.55;;;;;;;;;;5023694;28;20080;-74
2023/08/21 12:41:04;;;;;;;10.60;9.55;;;;;;;;;;5024553;28;20038;-74
2023/08/21 12:43:31;;;;;;;10.88;9.82;;;;;;;;;;5021293;28;20057;-75
2023/08/21 12:45:56;;;;;;;14.13;9.88;;;;;;;;;;5022167;28;20041;-73
2023/08/21 12:48:22;;;;;;;11.30;9.98;;;;;;;;;;5022093;28;20550;-74
2023/08/21 12:50:47;;;;;;;9.95;9.15;;;;;;;;;;5024617;28;20041;-75
2023/08/21 12:53:13;;;;;;;10.60;9.68;;;;;;;;;;5027465;28;20033;-74
2023/08/21 12:55:39;;;;;;;10.93;9.35;;;;;;;;;;5024908;28;20040;-73
2023/08/21 12:58:04;;;;;;;10.60;9.32;;;;;;;;;;5026161;28;20041;-74
2023/08/21 13:00:32;;;;;;;11.65;10.25;;;;;;;;;;5025141;28;20037;-74
2023/08/21 13:02:57;;;;;;;12.43;9.18;;;;;;;;;;5025309;28;20048;-74
2023/08/21 13:05:23;;;;;;;10.57;9.32;;;;;;;;;;5025026;28;20037;-74
2023/08/21 13:07:49;;;;;;;14.30;9.40;;;;;;;;;;5026423;28;20128;-74
2023/08/21 13:10:14;;;;;;;10.80;9.65;;;;;;;;;;5027280;28;20499;-73
2023/08/21 13:12:40;;;;;;;10.50;9.10;;;;;;;;;;5024522;28;20057;-74
2023/08/21 13:15:07;;;;;;;11.75;9.98;;;;;;;;;;5025442;28;20501;-74
2023/08/21 13:17:34;;;;;;;12.75;9.88;;;;;;;;;;5026721;28;20087;-74
2023/08/21 13:19:59;;;;;;;10.25;9.25;;;;;;;;;;5026131;28;20126;-74
2023/08/21 13:22:25;;;;;;;11.77;9.60;;;;;;;;;;5023663;28;20146;-74
2023/08/21 13:24:50;;;;;;;11.82;9.73;;;;;;;;;;5026599;28;20040;-74
2023/08/21 13:27:16;;;;;;;10.82;9.77;;;;;;;;;;5024642;28;20041;-74
2023/08/21 13:29:42;;;;;;;10.70;9.63;;;;;;;;;;5026358;28;20042;-74
2023/08/21 13:32:07;;;;;;;11.65;9.65;;;;;;;;;;5024149;28;20530;-74
2023/08/21 13:34:33;;;;;;;11.27;10.27;;;;;;;;;;5024534;28;20075;-75
2023/08/21 13:36:58;;;;;;;11.02;9.82;;;;;;;;;;5025854;28;20476;-74
2023/08/21 13:39:26;;;;;;;13.95;9.77;;;;;;;;;;5025666;28;20087;-74
2023/08/21 13:41:51;;;;;;;13.50;10.52;;;;;;;;;;5024965;28;20052;-75
2023/08/21 13:44:17;;;;;;;12.10;10.68;;;;;;;;;;5025786;28;20292;-74
2023/08/21 13:46:43;;;;;;;10.95;9.65;;;;;;;;;;5027824;28;20037;-74
2023/08/21 13:49:09;;;;;;;10.88;9.70;;;;;;;;;;5023673;28;20663;-74
2023/08/21 13:51:35;;;;;;;14.80;10.30;;;;;;;;;;5024523;28;20392;-74
2023/08/21 13:54:00;;;;;;;12.48;9.55;;;;;;;;;;5025145;28;20033;-74
2023/08/21 13:56:26;;;;;;;10.65;9.65;;;;;;;;;;5028352;28;20048;-73
2023/08/21 13:58:51;;;;;;;10.82;9.65;;;;;;;;;;5025002;28;20406;-73
2023/08/21 14:01:17;;;;;;;11.38;10.18;;;;;;;;;;5024029;28;20037;-74
2023/08/21 14:03:43;;;;;;;11.65;10.57;;;;;;;;;;5025574;28;20039;-74
2023/08/21 14:06:11;;;;;;;13.57;10.30;;;;;;;;;;5008930;28;20047;-75
2023/08/21 14:08:37;;;;;;;11.60;10.50;;;;;;;;;;5023992;28;20041;-74
2023/08/21 14:11:03;;;;;;;11.18;10.18;;;;;;;;;;5025593;28;20595;-74
2023/08/21 14:13:29;;;;;;;11.10;10.10;;;;;;;;;;5025387;28;20110;-74
2023/08/21 14:15:54;;;;;;;14.38;10.60;;;;;;;;;;5024314;28;20347;-74
2023/08/21 14:18:20;;;;;;;11.50;10.50;;;;;;;;;;5025352;28;20389;-74
2023/08/21 14:20:46;;;;;;;10.90;10.00;;;;;;;;;;5025549;28;20044;-75
2023/08/21 14:23:11;;;;;;;11.60;10.40;;;;;;;;;;5017306;28;20125;-74